AEE218 LCPH-LGAV
Flight info
| Callsign | AEE218 |
|---|---|
| Flight time | 1h 14m |
| Altitude | 36000 |
| Route | GENOS DCT PEDER DCT LUTIG DCT RDS UL995 USINI DCT AKINA DCT RIPLI UL995 VARIX |
| Aircraft | B737/M-SDE2E3FGHIRWXY/LB1 |
Departure
| Time | 2026-04-25 08:19 |
|---|---|
| Airport | Paphos International Airport (LCPH) |
Arrival
| Time | 2026-04-25 09:33 |
|---|---|
| Airport | Athens Eleftherios Venizelos International Airport (LGAV) |
| Time | Latitude | Longitude | Altitude | Speed | Heading |
|---|---|---|---|---|---|
| 2026-04-25 08:12 | 34.71314 | 32.48321 | 45 ft | 0 kts | 200° |
| 2026-04-25 08:14 | 34.71311 | 32.48314 | 42 ft | 4 kts | 240° |
| 2026-04-25 08:15 | 34.71337 | 32.48272 | 43 ft | 11 kts | 326° |
| 2026-04-25 08:15 | 34.71417 | 32.48254 | 45 ft | 16 kts | 5° |
| 2026-04-25 08:15 | 34.71543 | 32.48305 | 45 ft | 18 kts | 21° |
| 2026-04-25 08:15 | 34.71660 | 32.48359 | 45 ft | 18 kts | 21° |
| 2026-04-25 08:16 | 34.71772 | 32.48411 | 44 ft | 17 kts | 21° |
| 2026-04-25 08:16 | 34.71883 | 32.48456 | 45 ft | 16 kts | 18° |
| 2026-04-25 08:16 | 34.71989 | 32.48475 | 44 ft | 16 kts | 324° |
| 2026-04-25 08:16 | 34.72042 | 32.48328 | 44 ft | 24 kts | 289° |
| 2026-04-25 08:17 | 34.72098 | 32.48145 | 45 ft | 23 kts | 291° |
| 2026-04-25 08:17 | 34.72162 | 32.47939 | 43 ft | 26 kts | 290° |
| 2026-04-25 08:17 | 34.72223 | 32.47743 | 42 ft | 24 kts | 290° |
| 2026-04-25 08:17 | 34.72281 | 32.47550 | 43 ft | 27 kts | 290° |
| 2026-04-25 08:18 | 34.72345 | 32.47342 | 44 ft | 25 kts | 291° |
| 2026-04-25 08:18 | 34.72363 | 32.47175 | 44 ft | 19 kts | 217° |
| 2026-04-25 08:18 | 34.72244 | 32.47127 | 39 ft | 18 kts | 161° |
| 2026-04-25 08:18 | 34.72180 | 32.47297 | 44 ft | 48 kts | 110° |
| 2026-04-25 08:19 | 34.71939 | 32.48093 | 47 ft | 149 kts | 111° |
| 2026-04-25 08:19 | 34.71485 | 32.49439 | 692 ft | 185 kts | 114° |
| 2026-04-25 08:19 | 34.70978 | 32.50988 | 1872 ft | 199 kts | 108° |
| 2026-04-25 08:19 | 34.70487 | 32.52690 | 2818 ft | 228 kts | 108° |
| 2026-04-25 08:20 | 34.69948 | 32.54546 | 3750 ft | 237 kts | 110° |
| 2026-04-25 08:20 | 34.68988 | 32.56186 | 4597 ft | 244 kts | 143° |
| 2026-04-25 08:20 | 34.67422 | 32.56967 | 5422 ft | 248 kts | 175° |
| 2026-04-25 08:20 | 34.65736 | 32.56678 | 6372 ft | 247 kts | 204° |
| 2026-04-25 08:21 | 34.64388 | 32.55415 | 7295 ft | 248 kts | 233° |
| 2026-04-25 08:21 | 34.63728 | 32.53520 | 8234 ft | 251 kts | 259° |
| 2026-04-25 08:21 | 34.63577 | 32.51401 | 9206 ft | 253 kts | 266° |
| 2026-04-25 08:21 | 34.63540 | 32.49252 | 10145 ft | 255 kts | 267° |
| 2026-04-25 08:22 | 34.63505 | 32.47082 | 11010 ft | 259 kts | 266° |
| 2026-04-25 08:22 | 34.63453 | 32.44873 | 11835 ft | 264 kts | 266° |
| 2026-04-25 08:22 | 34.63389 | 32.42628 | 12704 ft | 268 kts | 266° |
| 2026-04-25 08:22 | 34.63319 | 32.40343 | 13597 ft | 273 kts | 265° |
| 2026-04-25 08:23 | 34.63307 | 32.38011 | 14340 ft | 283 kts | 272° |
| 2026-04-25 08:23 | 34.63565 | 32.35519 | 14590 ft | 313 kts | 276° |
| 2026-04-25 08:23 | 34.63943 | 32.32801 | 14813 ft | 340 kts | 277° |
| 2026-04-25 08:23 | 34.64357 | 32.29871 | 15238 ft | 358 kts | 277° |
| 2026-04-25 08:24 | 34.64767 | 32.26855 | 16030 ft | 364 kts | 276° |
| 2026-04-25 08:24 | 34.65157 | 32.23845 | 16944 ft | 366 kts | 276° |
| 2026-04-25 08:24 | 34.65541 | 32.20772 | 17836 ft | 370 kts | 275° |
| 2026-04-25 08:24 | 34.65925 | 32.17651 | 18633 ft | 375 kts | 275° |
| 2026-04-25 08:25 | 34.66255 | 32.14495 | 19362 ft | 378 kts | 272° |
| 2026-04-25 08:25 | 34.66485 | 32.11288 | 20115 ft | 382 kts | 271° |
| 2026-04-25 08:25 | 34.66686 | 32.08058 | 20858 ft | 385 kts | 271° |
| 2026-04-25 08:25 | 34.66891 | 32.04794 | 21613 ft | 389 kts | 270° |
| 2026-04-25 08:26 | 34.67109 | 32.01494 | 22338 ft | 393 kts | 271° |
| 2026-04-25 08:26 | 34.67335 | 31.98204 | 23015 ft | 398 kts | 271° |
| 2026-04-25 08:26 | 34.67569 | 31.94838 | 23669 ft | 402 kts | 271° |
| 2026-04-25 08:26 | 34.67844 | 31.91429 | 24241 ft | 408 kts | 276° |
| 2026-04-25 08:27 | 34.68752 | 31.88123 | 24816 ft | 421 kts | 293° |
| 2026-04-25 08:27 | 34.70201 | 31.85022 | 25466 ft | 424 kts | 296° |
| 2026-04-25 08:27 | 34.71731 | 31.81937 | 26029 ft | 428 kts | 297° |
| 2026-04-25 08:27 | 34.73292 | 31.78836 | 26564 ft | 431 kts | 297° |
| 2026-04-25 08:28 | 34.74862 | 31.75707 | 27122 ft | 434 kts | 297° |
| 2026-04-25 08:28 | 34.76426 | 31.72558 | 27662 ft | 437 kts | 297° |
| 2026-04-25 08:28 | 34.77990 | 31.69381 | 28194 ft | 439 kts | 296° |
| 2026-04-25 08:28 | 34.79557 | 31.66173 | 28699 ft | 442 kts | 296° |
| 2026-04-25 08:29 | 34.81129 | 31.62940 | 29167 ft | 445 kts | 296° |
| 2026-04-25 08:29 | 34.82707 | 31.59686 | 29623 ft | 448 kts | 296° |
| 2026-04-25 08:29 | 34.84295 | 31.56406 | 30059 ft | 451 kts | 296° |
| 2026-04-25 08:29 | 34.85889 | 31.53109 | 30418 ft | 453 kts | 296° |
| 2026-04-25 08:30 | 34.87487 | 31.49803 | 30887 ft | 452 kts | 296° |
| 2026-04-25 08:30 | 34.89056 | 31.46559 | 31470 ft | 448 kts | 296° |
| 2026-04-25 08:30 | 34.90648 | 31.43263 | 32075 ft | 444 kts | 296° |
| 2026-04-25 08:30 | 34.92191 | 31.40067 | 32580 ft | 442 kts | 296° |
| 2026-04-25 08:31 | 34.93745 | 31.36839 | 33027 ft | 441 kts | 296° |
| 2026-04-25 08:31 | 34.95301 | 31.33606 | 33484 ft | 440 kts | 296° |
| 2026-04-25 08:31 | 34.96843 | 31.30396 | 33961 ft | 438 kts | 296° |
| 2026-04-25 08:31 | 34.98376 | 31.27205 | 34366 ft | 436 kts | 296° |
| 2026-04-25 08:32 | 34.99907 | 31.24014 | 34709 ft | 435 kts | 296° |
| 2026-04-25 08:32 | 35.01440 | 31.20815 | 34981 ft | 437 kts | 296° |
| 2026-04-25 08:32 | 35.02974 | 31.17611 | 35262 ft | 437 kts | 296° |
| 2026-04-25 08:32 | 35.04506 | 31.14409 | 35603 ft | 436 kts | 296° |
| 2026-04-25 08:33 | 35.06033 | 31.11216 | 35942 ft | 435 kts | 296° |
| 2026-04-25 08:33 | 35.09087 | 31.04816 | 35995 ft | 441 kts | 296° |
| 2026-04-25 08:34 | 35.12168 | 30.98354 | 35981 ft | 437 kts | 296° |
| 2026-04-25 08:34 | 35.15215 | 30.91949 | 35985 ft | 435 kts | 296° |
| 2026-04-25 08:35 | 35.17741 | 30.86625 | 35984 ft | 435 kts | 295° |
| 2026-04-25 08:35 | 35.20542 | 30.80072 | 35982 ft | 433 kts | 292° |
| 2026-04-25 08:36 | 35.23190 | 30.73484 | 35987 ft | 433 kts | 292° |
| 2026-04-25 08:36 | 35.25862 | 30.66860 | 35986 ft | 434 kts | 292° |
| 2026-04-25 08:37 | 35.28553 | 30.60245 | 35982 ft | 434 kts | 292° |
| 2026-04-25 08:37 | 35.31252 | 30.53619 | 35979 ft | 435 kts | 292° |
| 2026-04-25 08:38 | 35.33935 | 30.47025 | 35981 ft | 435 kts | 292° |
| 2026-04-25 08:38 | 35.36628 | 30.40389 | 35983 ft | 435 kts | 292° |
| 2026-04-25 08:39 | 35.39319 | 30.33745 | 35983 ft | 436 kts | 292° |
| 2026-04-25 08:39 | 35.42011 | 30.27085 | 35981 ft | 436 kts | 292° |
| 2026-04-25 08:40 | 35.44704 | 30.20407 | 35979 ft | 437 kts | 292° |
| 2026-04-25 08:40 | 35.47393 | 30.13728 | 35977 ft | 437 kts | 292° |
| 2026-04-25 08:41 | 35.50063 | 30.07080 | 35986 ft | 437 kts | 292° |
| 2026-04-25 08:41 | 35.52753 | 30.00372 | 35981 ft | 438 kts | 292° |
| 2026-04-25 08:42 | 35.55558 | 29.93712 | 35978 ft | 439 kts | 294° |
| 2026-04-25 08:42 | 35.58468 | 29.87094 | 35978 ft | 440 kts | 294° |
| 2026-04-25 08:43 | 35.61368 | 29.80470 | 35988 ft | 440 kts | 294° |
| 2026-04-25 08:43 | 35.64252 | 29.73822 | 35978 ft | 441 kts | 294° |
| 2026-04-25 08:44 | 35.67105 | 29.67209 | 35977 ft | 441 kts | 294° |
| 2026-04-25 08:44 | 35.69979 | 29.60532 | 35978 ft | 441 kts | 294° |
| 2026-04-25 08:45 | 35.72854 | 29.53840 | 35990 ft | 442 kts | 294° |
| 2026-04-25 08:45 | 35.75710 | 29.47176 | 35978 ft | 443 kts | 294° |
| 2026-04-25 08:46 | 35.78582 | 29.40466 | 35985 ft | 443 kts | 294° |
| 2026-04-25 08:46 | 35.81457 | 29.33735 | 35981 ft | 444 kts | 294° |
| 2026-04-25 08:47 | 35.84202 | 29.26912 | 35981 ft | 443 kts | 291° |
| 2026-04-25 08:47 | 35.86806 | 29.20012 | 35987 ft | 444 kts | 291° |
| 2026-04-25 08:48 | 35.89399 | 29.13138 | 35982 ft | 445 kts | 291° |
| 2026-04-25 08:48 | 35.92031 | 29.06217 | 35978 ft | 446 kts | 291° |
| 2026-04-25 08:49 | 35.94675 | 28.99286 | 35981 ft | 446 kts | 291° |
| 2026-04-25 08:49 | 35.97321 | 28.92343 | 35988 ft | 447 kts | 291° |
| 2026-04-25 08:50 | 35.99967 | 28.85383 | 35982 ft | 448 kts | 291° |
| 2026-04-25 08:50 | 36.02612 | 28.78410 | 35987 ft | 448 kts | 291° |
| 2026-04-25 08:51 | 36.05240 | 28.71466 | 35971 ft | 449 kts | 291° |
| 2026-04-25 08:51 | 36.07884 | 28.64463 | 35979 ft | 449 kts | 291° |
| 2026-04-25 08:52 | 36.10526 | 28.57451 | 35970 ft | 450 kts | 291° |
| 2026-04-25 08:52 | 36.13166 | 28.50428 | 35968 ft | 450 kts | 291° |
| 2026-04-25 08:53 | 36.15804 | 28.43394 | 35975 ft | 451 kts | 291° |
| 2026-04-25 08:53 | 36.18444 | 28.36338 | 35973 ft | 451 kts | 291° |
| 2026-04-25 08:54 | 36.21066 | 28.29317 | 35965 ft | 452 kts | 291° |
| 2026-04-25 08:54 | 36.23701 | 28.22245 | 35957 ft | 452 kts | 291° |
| 2026-04-25 08:55 | 36.26331 | 28.15169 | 35949 ft | 452 kts | 291° |
| 2026-04-25 08:55 | 36.28954 | 28.08098 | 35968 ft | 452 kts | 291° |
| 2026-04-25 08:56 | 36.31578 | 28.01007 | 35978 ft | 453 kts | 291° |
| 2026-04-25 08:56 | 36.34192 | 27.93925 | 35961 ft | 454 kts | 291° |
| 2026-04-25 08:57 | 36.36814 | 27.86808 | 35960 ft | 452 kts | 291° |
| 2026-04-25 08:57 | 36.39426 | 27.79704 | 35954 ft | 452 kts | 291° |
| 2026-04-25 08:58 | 36.42031 | 27.72600 | 35944 ft | 451 kts | 291° |
| 2026-04-25 08:58 | 36.44625 | 27.65507 | 35954 ft | 451 kts | 291° |
| 2026-04-25 08:59 | 36.47195 | 27.58466 | 35962 ft | 450 kts | 291° |
| 2026-04-25 08:59 | 36.49780 | 27.51370 | 35954 ft | 450 kts | 291° |
| 2026-04-25 09:00 | 36.52358 | 27.44274 | 35964 ft | 450 kts | 291° |
| 2026-04-25 09:00 | 36.54929 | 27.37180 | 35973 ft | 450 kts | 291° |
| 2026-04-25 09:01 | 36.57499 | 27.30074 | 35974 ft | 450 kts | 291° |
| 2026-04-25 09:01 | 36.60067 | 27.22959 | 35990 ft | 450 kts | 291° |
| 2026-04-25 09:02 | 36.62614 | 27.15883 | 36015 ft | 450 kts | 291° |
| 2026-04-25 09:02 | 36.65173 | 27.08758 | 35992 ft | 451 kts | 291° |
| 2026-04-25 09:03 | 36.67728 | 27.01628 | 35995 ft | 450 kts | 291° |
| 2026-04-25 09:03 | 36.70280 | 26.94492 | 35998 ft | 450 kts | 291° |
| 2026-04-25 09:04 | 36.72809 | 26.87400 | 35990 ft | 450 kts | 291° |
| 2026-04-25 09:04 | 36.75350 | 26.80261 | 35998 ft | 450 kts | 291° |
| 2026-04-25 09:05 | 36.77888 | 26.73112 | 36002 ft | 451 kts | 291° |
| 2026-04-25 09:05 | 36.80425 | 26.65949 | 36000 ft | 451 kts | 291° |
| 2026-04-25 09:06 | 36.82956 | 26.58786 | 36001 ft | 450 kts | 291° |
| 2026-04-25 09:06 | 36.85476 | 26.51638 | 36004 ft | 449 kts | 292° |
| 2026-04-25 09:07 | 36.87976 | 26.44529 | 36003 ft | 449 kts | 292° |
| 2026-04-25 09:07 | 36.90483 | 26.37384 | 36005 ft | 449 kts | 292° |
| 2026-04-25 09:08 | 36.92985 | 26.30237 | 35995 ft | 448 kts | 292° |
| 2026-04-25 09:08 | 36.95475 | 26.23104 | 36005 ft | 448 kts | 292° |
| 2026-04-25 09:09 | 36.97963 | 26.15965 | 36005 ft | 448 kts | 292° |
| 2026-04-25 09:09 | 37.00445 | 26.08821 | 36005 ft | 448 kts | 292° |
| 2026-04-25 09:10 | 37.02927 | 26.01665 | 36002 ft | 448 kts | 292° |
| 2026-04-25 09:10 | 37.05400 | 25.94513 | 36007 ft | 448 kts | 292° |
| 2026-04-25 09:11 | 37.09105 | 25.83772 | 36015 ft | 448 kts | 292° |
| 2026-04-25 09:11 | 37.11576 | 25.76583 | 35999 ft | 449 kts | 292° |
| 2026-04-25 09:12 | 37.14028 | 25.69433 | 35927 ft | 451 kts | 292° |
| 2026-04-25 09:12 | 37.15269 | 25.65811 | 35726 ft | 451 kts | 292° |
| 2026-04-25 09:12 | 37.16507 | 25.62192 | 35270 ft | 454 kts | 292° |
| 2026-04-25 09:13 | 37.17751 | 25.58546 | 34631 ft | 456 kts | 292° |
| 2026-04-25 09:13 | 37.18997 | 25.54888 | 33892 ft | 458 kts | 292° |
| 2026-04-25 09:13 | 37.20251 | 25.51205 | 33152 ft | 457 kts | 292° |
| 2026-04-25 09:13 | 37.21502 | 25.47532 | 32529 ft | 459 kts | 292° |
| 2026-04-25 09:14 | 37.22765 | 25.43820 | 31861 ft | 466 kts | 292° |
| 2026-04-25 09:14 | 37.24043 | 25.40059 | 31177 ft | 469 kts | 292° |
| 2026-04-25 09:14 | 37.25321 | 25.36289 | 30532 ft | 469 kts | 292° |
| 2026-04-25 09:14 | 37.26599 | 25.32515 | 29814 ft | 470 kts | 293° |
| 2026-04-25 09:15 | 37.27879 | 25.28728 | 29035 ft | 471 kts | 293° |
| 2026-04-25 09:15 | 37.29159 | 25.24935 | 28264 ft | 474 kts | 293° |
| 2026-04-25 09:15 | 37.30450 | 25.21105 | 27528 ft | 479 kts | 293° |
| 2026-04-25 09:15 | 37.31745 | 25.17262 | 26817 ft | 485 kts | 293° |
| 2026-04-25 09:16 | 37.33062 | 25.13348 | 26109 ft | 487 kts | 293° |
| 2026-04-25 09:16 | 37.34381 | 25.09425 | 25426 ft | 487 kts | 293° |
| 2026-04-25 09:16 | 37.35699 | 25.05498 | 24747 ft | 485 kts | 293° |
| 2026-04-25 09:16 | 37.36965 | 25.01605 | 24065 ft | 478 kts | 291° |
| 2026-04-25 09:17 | 37.39097 | 24.93761 | 22525 ft | 470 kts | 288° |
| 2026-04-25 09:17 | 37.40085 | 24.89857 | 21794 ft | 467 kts | 288° |
| 2026-04-25 09:17 | 37.41069 | 24.85984 | 21076 ft | 463 kts | 288° |
| 2026-04-25 09:18 | 37.42046 | 24.82183 | 20379 ft | 460 kts | 288° |
| 2026-04-25 09:18 | 37.43033 | 24.78392 | 19684 ft | 448 kts | 288° |
| 2026-04-25 09:18 | 37.43995 | 24.74725 | 19014 ft | 438 kts | 289° |
| 2026-04-25 09:18 | 37.44946 | 24.71114 | 18358 ft | 431 kts | 288° |
| 2026-04-25 09:19 | 37.45883 | 24.67556 | 17625 ft | 424 kts | 288° |
| 2026-04-25 09:19 | 37.46802 | 24.64065 | 17063 ft | 415 kts | 288° |
| 2026-04-25 09:19 | 37.47703 | 24.60632 | 16519 ft | 412 kts | 289° |
| 2026-04-25 09:19 | 37.48600 | 24.57210 | 15943 ft | 410 kts | 289° |
| 2026-04-25 09:20 | 37.49493 | 24.53795 | 15377 ft | 408 kts | 289° |
| 2026-04-25 09:20 | 37.50371 | 24.50432 | 14811 ft | 400 kts | 289° |
| 2026-04-25 09:20 | 37.51232 | 24.47134 | 14297 ft | 392 kts | 289° |
| 2026-04-25 09:20 | 37.52074 | 24.43899 | 13785 ft | 385 kts | 289° |
| 2026-04-25 09:21 | 37.52891 | 24.40758 | 13215 ft | 380 kts | 289° |
| 2026-04-25 09:21 | 37.53708 | 24.37616 | 12646 ft | 374 kts | 289° |
| 2026-04-25 09:21 | 37.54514 | 24.34513 | 12081 ft | 370 kts | 289° |
| 2026-04-25 09:21 | 37.55307 | 24.31449 | 11545 ft | 366 kts | 288° |
| 2026-04-25 09:22 | 37.55744 | 24.28325 | 11005 ft | 362 kts | 269° |
| 2026-04-25 09:22 | 37.55576 | 24.25191 | 10559 ft | 356 kts | 265° |
| 2026-04-25 09:22 | 37.55391 | 24.22104 | 10076 ft | 351 kts | 265° |
| 2026-04-25 09:22 | 37.55497 | 24.19063 | 9530 ft | 344 kts | 284° |
| 2026-04-25 09:23 | 37.56255 | 24.16279 | 9030 ft | 329 kts | 293° |
| 2026-04-25 09:23 | 37.56834 | 24.14541 | 8701 ft | 321 kts | 294° |
| 2026-04-25 09:23 | 37.57968 | 24.11217 | 8205 ft | 303 kts | 295° |
| 2026-04-25 09:23 | 37.58788 | 24.08820 | 7785 ft | 294 kts | 295° |
| 2026-04-25 09:24 | 37.59586 | 24.06479 | 7350 ft | 288 kts | 295° |
| 2026-04-25 09:24 | 37.60364 | 24.04177 | 6985 ft | 282 kts | 295° |
| 2026-04-25 09:24 | 37.60883 | 24.02642 | 6708 ft | 280 kts | 295° |
| 2026-04-25 09:24 | 37.61652 | 24.00369 | 6320 ft | 282 kts | 295° |
| 2026-04-25 09:25 | 37.62412 | 23.98114 | 5877 ft | 284 kts | 295° |
| 2026-04-25 09:25 | 37.63173 | 23.95813 | 5446 ft | 284 kts | 295° |
| 2026-04-25 09:25 | 37.63916 | 23.93507 | 5068 ft | 283 kts | 295° |
| 2026-04-25 09:25 | 37.64649 | 23.91214 | 4727 ft | 280 kts | 295° |
| 2026-04-25 09:26 | 37.65373 | 23.88947 | 4400 ft | 277 kts | 295° |
| 2026-04-25 09:26 | 37.66081 | 23.86714 | 4051 ft | 269 kts | 295° |
| 2026-04-25 09:26 | 37.66753 | 23.84554 | 3714 ft | 259 kts | 295° |
| 2026-04-25 09:26 | 37.67389 | 23.82465 | 3397 ft | 251 kts | 295° |
| 2026-04-25 09:27 | 37.67997 | 23.80435 | 3059 ft | 243 kts | 297° |
| 2026-04-25 09:27 | 37.68936 | 23.78752 | 2982 ft | 231 kts | 328° |
| 2026-04-25 09:27 | 37.70362 | 23.77973 | 2989 ft | 223 kts | 352° |
| 2026-04-25 09:27 | 37.71896 | 23.77641 | 2983 ft | 225 kts | 354° |
| 2026-04-25 09:28 | 37.73417 | 23.77358 | 2973 ft | 222 kts | 354° |
| 2026-04-25 09:28 | 37.74944 | 23.77080 | 2968 ft | 222 kts | 355° |
| 2026-04-25 09:28 | 37.76455 | 23.77127 | 2961 ft | 216 kts | 22° |
| 2026-04-25 09:28 | 37.77708 | 23.78126 | 2983 ft | 214 kts | 36° |
| 2026-04-25 09:29 | 37.78909 | 23.79242 | 2977 ft | 213 kts | 35° |
| 2026-04-25 09:29 | 37.80082 | 23.80349 | 2961 ft | 207 kts | 36° |
| 2026-04-25 09:29 | 37.81224 | 23.81440 | 2949 ft | 205 kts | 36° |
| 2026-04-25 09:29 | 37.82372 | 23.82537 | 2739 ft | 207 kts | 36° |
| 2026-04-25 09:30 | 37.83504 | 23.83620 | 2449 ft | 199 kts | 36° |
| 2026-04-25 09:30 | 37.84584 | 23.84653 | 2209 ft | 192 kts | 36° |
| 2026-04-25 09:30 | 37.85608 | 23.85634 | 1950 ft | 178 kts | 34° |
| 2026-04-25 09:30 | 37.86545 | 23.86530 | 1707 ft | 159 kts | 34° |
| 2026-04-25 09:31 | 37.87373 | 23.87321 | 1519 ft | 140 kts | 34° |
| 2026-04-25 09:31 | 37.88117 | 23.88031 | 1375 ft | 124 kts | 34° |
| 2026-04-25 09:31 | 37.88780 | 23.88665 | 1190 ft | 117 kts | 33° |
| 2026-04-25 09:31 | 37.89437 | 23.89292 | 1022 ft | 116 kts | 36° |
| 2026-04-25 09:32 | 37.90109 | 23.89926 | 824 ft | 126 kts | 37° |
| 2026-04-25 09:32 | 37.90807 | 23.90590 | 672 ft | 128 kts | 36° |
| 2026-04-25 09:32 | 37.91479 | 23.91247 | 520 ft | 115 kts | 36° |
| 2026-04-25 09:32 | 37.92105 | 23.91840 | 381 ft | 114 kts | 36° |
| 2026-04-25 09:33 | 37.92734 | 23.92445 | 300 ft | 107 kts | 36° |
| 2026-04-25 09:33 | 37.93235 | 23.92923 | 290 ft | 64 kts | 37° |
| 2026-04-25 09:33 | 37.93480 | 23.93158 | 290 ft | 26 kts | 37° |
| 2026-04-25 09:33 | 37.93582 | 23.93314 | 291 ft | 22 kts | 60° |
| 2026-04-25 09:34 | 37.93620 | 23.93416 | 293 ft | 11 kts | 66° |
| 2026-04-25 09:34 | 37.93650 | 23.93503 | 297 ft | 11 kts | 66° |
| 2026-04-25 09:34 | 37.93682 | 23.93599 | 298 ft | 14 kts | 68° |
| 2026-04-25 09:34 | 37.93760 | 23.93696 | 298 ft | 16 kts | 38° |
| 2026-04-25 09:35 | 37.93845 | 23.93780 | 298 ft | 15 kts | 38° |
| 2026-04-25 09:35 | 37.93952 | 23.93879 | 300 ft | 19 kts | 36° |
| 2026-04-25 09:35 | 37.94058 | 23.93979 | 299 ft | 19 kts | 36° |
| 2026-04-25 09:35 | 37.94162 | 23.94076 | 302 ft | 18 kts | 37° |
| 2026-04-25 09:36 | 37.94261 | 23.94170 | 301 ft | 18 kts | 37° |
| 2026-04-25 09:36 | 37.94358 | 23.94262 | 300 ft | 17 kts | 37° |
| 2026-04-25 09:36 | 37.94451 | 23.94350 | 302 ft | 16 kts | 37° |
| 2026-04-25 09:36 | 37.94539 | 23.94436 | 301 ft | 16 kts | 38° |
| 2026-04-25 09:37 | 37.94624 | 23.94519 | 303 ft | 15 kts | 38° |
| 2026-04-25 09:37 | 37.94679 | 23.94580 | 302 ft | 9 kts | 57° |
| 2026-04-25 09:37 | 37.94659 | 23.94674 | 301 ft | 15 kts | 127° |
| 2026-04-25 09:37 | 37.94584 | 23.94798 | 301 ft | 19 kts | 127° |
| 2026-04-25 09:38 | 37.94508 | 23.94927 | 300 ft | 18 kts | 127° |
| 2026-04-25 09:38 | 37.94433 | 23.95051 | 300 ft | 17 kts | 128° |
| 2026-04-25 09:38 | 37.94361 | 23.95168 | 302 ft | 17 kts | 128° |
| 2026-04-25 09:38 | 37.94321 | 23.95234 | 300 ft | 8 kts | 128° |
| 2026-04-25 09:39 | 37.94285 | 23.95295 | 301 ft | 10 kts | 126° |
| 2026-04-25 09:39 | 37.94241 | 23.95311 | 300 ft | 7 kts | 213° |
| 2026-04-25 09:39 | 37.94203 | 23.95274 | 301 ft | 7 kts | 218° |
| 2026-04-25 09:40 | 37.94188 | 23.95260 | 300 ft | 0 kts | 217° |